createdAt,value
2018-12-09T00:00:20.994Z,5.90
2018-12-09T00:03:02.150Z,5.90
2018-12-09T00:05:41.632Z,5.90
2018-12-09T00:08:18.772Z,6.00
2018-12-09T00:10:53.282Z,6.00
2018-12-09T00:13:31.121Z,6.00
2018-12-09T00:16:24.268Z,6.00
2018-12-09T00:19:01.399Z,5.90
2018-12-09T00:21:43.374Z,5.90
2018-12-09T00:24:19.639Z,5.90
2018-12-09T00:26:56.787Z,5.90
2018-12-09T00:29:34.324Z,5.90
2018-12-09T00:32:07.467Z,5.90
2018-12-09T00:34:45.723Z,5.80
2018-12-09T00:37:27.200Z,5.80
2018-12-09T00:40:04.532Z,5.80
2018-12-09T00:42:43.599Z,5.80
2018-12-09T00:45:22.331Z,5.80
2018-12-09T00:47:58.752Z,5.80
2018-12-09T00:53:12.327Z,5.80
2018-12-09T00:55:51.687Z,5.80
2018-12-09T00:58:28.052Z,5.80
2018-12-09T01:01:04.495Z,5.80
2018-12-09T01:03:41.384Z,5.90
2018-12-09T01:06:18.115Z,5.90
2018-12-09T01:08:54.543Z,5.90
2018-12-09T01:11:36.875Z,5.90
2018-12-09T01:14:16.896Z,5.90
2018-12-09T01:16:49.160Z,6.00
2018-12-09T01:19:22.276Z,6.00
2018-12-09T01:21:55.025Z,6.00
2018-12-09T01:24:28.164Z,6.00
2018-12-09T01:27:00.486Z,6.00
2018-12-09T01:29:33.607Z,6.00
2018-12-09T01:32:07.004Z,5.90
2018-12-09T01:34:39.368Z,6.00
2018-12-09T01:37:11.740Z,5.90
2018-12-09T01:39:44.949Z,5.90
2018-12-09T01:42:18.441Z,5.90
2018-12-09T01:44:51.749Z,5.90
2018-12-09T01:47:24.684Z,5.80
2018-12-09T01:49:57.989Z,5.80
2018-12-09T01:52:34.292Z,5.80
2018-12-09T01:55:10.888Z,5.80
2018-12-09T01:57:44.616Z,5.70
2018-12-09T02:00:21.408Z,5.70
2018-12-09T02:05:26.708Z,5.60
2018-12-09T02:08:00.777Z,5.60
2018-12-09T02:10:37.740Z,5.60
2018-12-09T02:13:14.156Z,5.60
2018-12-09T02:15:47.708Z,5.60
2018-12-09T02:18:20.438Z,5.70
2018-12-09T02:20:52.463Z,5.70
2018-12-09T02:23:24.819Z,5.70
2018-12-09T02:26:01.330Z,5.70
2018-12-09T02:28:33.951Z,5.70
2018-12-09T02:31:06.653Z,5.70
2018-12-09T02:33:39.156Z,5.70
2018-12-09T02:36:11.752Z,5.70
2018-12-09T02:38:44.595Z,5.70
2018-12-09T02:41:21.023Z,5.80
2018-12-09T02:43:53.176Z,5.80
2018-12-09T02:46:30.103Z,5.70
2018-12-09T02:49:02.460Z,5.80
2018-12-09T02:51:35.108Z,5.80
2018-12-09T02:54:07.240Z,5.80
2018-12-09T02:56:40.444Z,5.90
2018-12-09T02:59:13.029Z,5.90
2018-12-09T03:01:49.284Z,5.90
2018-12-09T03:04:22.435Z,6.00
2018-12-09T03:22:08.982Z,5.90
2018-12-09T03:24:39.736Z,5.80
2018-12-09T03:27:12.490Z,5.80
2018-12-09T03:29:44.911Z,5.70
2018-12-09T03:32:17.595Z,5.70
2018-12-09T03:34:51.383Z,5.70
2018-12-09T03:37:28.571Z,5.70
2018-12-09T03:40:00.551Z,5.60
2018-12-09T03:42:33.340Z,5.60
2018-12-09T03:45:06.489Z,5.60
2018-12-09T03:47:39.414Z,5.70
2018-12-09T03:50:12.537Z,5.70
2018-12-09T03:52:44.662Z,5.70
2018-12-09T03:55:17.265Z,5.80
2018-12-09T03:57:49.527Z,5.80
2018-12-09T04:00:22.919Z,5.70
2018-12-09T04:02:55.051Z,5.70
2018-12-09T04:05:27.483Z,5.70
2018-12-09T04:08:03.561Z,5.60
2018-12-09T04:10:36.508Z,5.60
2018-12-09T04:13:08.785Z,5.60
2018-12-09T04:15:42.280Z,5.60
2018-12-09T04:18:19.140Z,5.60
2018-12-09T04:20:52.169Z,5.60
2018-12-09T04:23:24.231Z,5.60
2018-12-09T04:25:57.204Z,5.70
2018-12-09T04:28:33.964Z,5.80
2018-12-09T04:31:07.616Z,5.80
2018-12-09T04:33:40.518Z,5.90
2018-12-09T04:36:13.006Z,5.80
2018-12-09T04:43:50.931Z,5.90
2018-12-09T04:46:27.170Z,5.90
2018-12-09T04:48:59.925Z,5.90
2018-12-09T04:51:43.591Z,6.00
2018-12-09T04:54:15.899Z,6.00
2018-12-09T04:56:48.005Z,6.10
2018-12-09T04:59:22.448Z,6.10
2018-12-09T05:01:55.569Z,6.10
2018-12-09T05:04:28.520Z,6.10
2018-12-09T05:07:00.655Z,6.10
2018-12-09T05:09:32.932Z,6.00
2018-12-09T05:12:05.266Z,6.10
2018-12-09T05:14:38.806Z,6.00
2018-12-09T05:17:11.641Z,6.10
2018-12-09T05:19:44.868Z,6.10
2018-12-09T05:22:17.213Z,6.00
2018-12-09T05:24:49.638Z,6.10
2018-12-09T05:27:21.928Z,6.10
2018-12-09T05:29:54.382Z,6.10
2018-12-09T05:32:26.764Z,6.20
2018-12-09T05:34:59.977Z,6.10
2018-12-09T05:37:32.287Z,6.10
2018-12-09T05:40:04.684Z,6.00
2018-12-09T05:42:42.064Z,5.90
2018-12-09T05:45:14.259Z,5.90
2018-12-09T05:47:47.506Z,5.90
2018-12-09T05:50:19.713Z,5.90
2018-12-09T05:52:51.939Z,5.90
2018-12-09T05:55:24.272Z,5.90
2018-12-09T05:57:56.700Z,6.00
2018-12-09T06:00:28.923Z,6.00
2018-12-09T06:03:01.409Z,6.10
2018-12-09T06:05:33.812Z,6.20
2018-12-09T06:08:06.040Z,6.20
2018-12-09T06:10:38.299Z,6.20
2018-12-09T06:13:10.474Z,6.30
2018-12-09T06:15:42.836Z,6.20
2018-12-09T06:18:20.012Z,6.20
2018-12-09T06:20:56.155Z,6.30
2018-12-09T06:23:32.397Z,6.30
2018-12-09T06:26:08.759Z,6.40
2018-12-09T06:28:41.744Z,6.40
2018-12-09T06:31:14.042Z,6.50
2018-12-09T06:33:46.179Z,6.60
2018-12-09T06:36:22.404Z,6.60
2018-12-09T06:38:54.584Z,6.70
2018-12-09T06:41:26.875Z,6.70
2018-12-09T06:43:58.971Z,6.80
2018-12-09T06:46:31.247Z,6.80
2018-12-09T06:49:03.499Z,6.90
2018-12-09T06:51:34.611Z,6.90
2018-12-09T06:54:06.902Z,6.90
2018-12-09T06:56:39.856Z,6.90
2018-12-09T06:59:12.045Z,6.90
2018-12-09T07:01:45.478Z,6.90
2018-12-09T07:04:16.363Z,6.90
2018-12-09T07:06:49.395Z,7.00
2018-12-09T07:09:22.732Z,7.00
2018-12-09T07:11:55.827Z,7.00
2018-12-09T07:14:28.919Z,7.10
2018-12-09T07:17:04.773Z,7.10
2018-12-09T07:19:38.148Z,7.30
2018-12-09T07:22:14.495Z,7.40
2018-12-09T07:24:47.423Z,7.60
2018-12-09T07:27:30.420Z,8.00
2018-12-09T07:30:03.061Z,8.30
2018-12-09T07:32:33.524Z,8.60
2018-12-09T07:35:10.260Z,9.00
2018-12-09T07:37:41.064Z,9.20
2018-12-09T07:40:13.355Z,9.40
2018-12-09T07:42:45.454Z,9.60
2018-12-09T07:45:15.831Z,9.70
2018-12-09T07:47:52.255Z,9.70
2018-12-09T07:50:25.441Z,9.80
2018-12-09T07:52:58.140Z,9.80
2018-12-09T07:55:28.847Z,9.80
2018-12-09T07:58:01.183Z,9.80
2018-12-09T08:00:33.408Z,9.80
2018-12-09T08:03:06.117Z,9.80
2018-12-09T08:05:38.859Z,9.70
2018-12-09T08:08:12.912Z,9.70
2018-12-09T08:10:45.438Z,9.70
2018-12-09T08:13:17.907Z,9.70
2018-12-09T08:18:27.372Z,9.70
2018-12-09T08:21:00.412Z,9.70
2018-12-09T08:23:32.732Z,9.70
2018-12-09T08:26:12.881Z,9.60
2018-12-09T08:31:24.629Z,9.60
2018-12-09T08:33:56.972Z,9.60
2018-12-09T08:36:29.641Z,9.60
2018-12-09T08:39:02.424Z,9.50
2018-12-09T08:41:35.112Z,9.50
2018-12-09T08:44:07.244Z,9.60
2018-12-09T08:46:54.304Z,9.50
2018-12-09T08:49:39.137Z,9.60
2018-12-09T08:52:25.584Z,9.60
2018-12-09T08:54:58.461Z,9.60
2018-12-09T08:57:30.592Z,9.70
2018-12-09T09:00:03.989Z,9.70
2018-12-09T09:02:36.631Z,9.80
2018-12-09T09:05:09.064Z,9.80
2018-12-09T09:07:40.304Z,9.80
2018-12-09T09:10:13.199Z,9.90
2018-12-09T09:12:46.451Z,9.90
2018-12-09T09:15:24.998Z,9.90
2018-12-09T09:17:58.393Z,9.90
2018-12-09T09:20:30.729Z,10.00
2018-12-09T09:23:04.628Z,10.00
2018-12-09T09:25:40.889Z,10.00
2018-12-09T09:28:14.472Z,10.00
2018-12-09T09:30:46.521Z,10.10
2018-12-09T09:33:18.735Z,10.10
2018-12-09T09:35:54.768Z,10.10
2018-12-09T09:38:27.735Z,10.10
2018-12-09T09:41:10.744Z,10.10
2018-12-09T09:43:43.520Z,10.10
2018-12-09T09:46:16.819Z,10.10
2018-12-09T09:48:47.329Z,10.10
2018-12-09T09:51:18.557Z,10.10
2018-12-09T09:56:35.704Z,10.00
2018-12-09T09:59:08.836Z,10.10
2018-12-09T10:01:41.996Z,10.00
2018-12-09T10:04:14.828Z,10.00
2018-12-09T10:06:52.456Z,10.00
2018-12-09T10:09:24.906Z,10.00
2018-12-09T10:11:57.229Z,10.00
2018-12-09T10:14:31.078Z,9.90
2018-12-09T10:17:05.573Z,9.90
2018-12-09T10:19:37.789Z,9.80
2018-12-09T10:22:14.066Z,9.80
2018-12-09T10:24:51.064Z,9.90
2018-12-09T10:27:30.291Z,10.10
2018-12-09T10:30:15.960Z,10.40
2018-12-09T10:32:57.869Z,10.70
2018-12-09T10:35:35.803Z,10.80
2018-12-09T10:38:08.025Z,10.80
2018-12-09T10:40:46.389Z,11.10
2018-12-09T10:43:19.803Z,11.40
2018-12-09T10:45:52.835Z,11.70
2018-12-09T10:48:25.199Z,11.70
2018-12-09T10:50:55.403Z,11.60
2018-12-09T10:53:27.701Z,11.60
2018-12-09T10:56:04.430Z,11.40
2018-12-09T10:58:41.652Z,11.10
2018-12-09T11:01:23.153Z,11.20
2018-12-09T11:03:58.541Z,11.50
2018-12-09T11:13:30.817Z,11.70
2018-12-09T11:16:11.650Z,11.80
2018-12-09T11:25:23.470Z,12.40
2018-12-09T11:28:18.816Z,12.50
2018-12-09T11:31:22.095Z,12.60
2018-12-09T11:34:18.409Z,12.30
2018-12-09T11:37:00.124Z,11.80
2018-12-09T11:39:54.193Z,11.20
2018-12-09T11:42:42.881Z,11.00
2018-12-09T11:45:48.596Z,10.80
2018-12-09T11:49:02.193Z,10.70
2018-12-09T11:51:58.624Z,10.50
2018-12-09T12:01:50.935Z,10.20
2018-12-09T12:19:04.879Z,10.20
2018-12-09T12:22:28.123Z,10.00
2018-12-09T12:25:27.757Z,9.90
2018-12-09T12:34:41.721Z,9.90
2018-12-09T12:37:47.091Z,9.80
2018-12-09T12:40:23.346Z,9.80
2018-12-09T12:43:49.584Z,9.70
2018-12-09T12:49:56.375Z,9.60
2018-12-09T12:56:38.217Z,9.70
2018-12-09T13:02:31.597Z,9.70
2018-12-09T13:05:30.021Z,9.50
2018-12-09T13:08:29.357Z,9.40
2018-12-09T13:11:29.132Z,9.40
2018-12-09T13:14:06.936Z,9.30
2018-12-09T13:16:47.462Z,9.30
2018-12-09T13:19:24.036Z,9.40
2018-12-09T13:24:49.734Z,9.40
2018-12-09T13:27:37.761Z,9.40
2018-12-09T13:30:15.497Z,9.40
2018-12-09T13:32:54.635Z,9.40
2018-12-09T13:35:42.281Z,9.40
2018-12-09T13:38:18.522Z,9.30
2018-12-09T13:40:59.729Z,9.20
2018-12-09T13:43:42.745Z,9.20
2018-12-09T13:46:15.817Z,9.20
2018-12-09T13:49:02.348Z,9.30
2018-12-09T13:51:39.748Z,9.20
2018-12-09T13:54:13.984Z,9.20
2018-12-09T13:56:51.101Z,9.20
2018-12-09T13:59:25.194Z,9.20
2018-12-09T14:02:06.132Z,9.20
2018-12-09T14:04:40.232Z,9.10
2018-12-09T14:07:13.951Z,9.10
2018-12-09T14:09:47.650Z,9.10
2018-12-09T14:12:25.092Z,9.10
2018-12-09T14:15:01.073Z,9.00
2018-12-09T14:17:39.778Z,8.90
2018-12-09T14:20:15.020Z,8.90
2018-12-09T14:22:47.455Z,8.90
2018-12-09T14:25:25.196Z,8.80
2018-12-09T14:28:09.209Z,8.70
2018-12-09T14:30:46.210Z,8.60
2018-12-09T14:33:24.167Z,8.60
2018-12-09T14:35:57.227Z,8.50
2018-12-09T14:38:29.920Z,8.40
2018-12-09T14:41:02.611Z,8.30
2018-12-09T14:43:40.163Z,8.20
2018-12-09T14:46:14.736Z,8.10
2018-12-09T14:48:48.752Z,8.00
2018-12-09T14:51:21.519Z,8.00
2018-12-09T14:53:56.134Z,8.00
2018-12-09T14:56:29.637Z,8.00
2018-12-09T14:59:03.591Z,8.00
2018-12-09T15:01:41.538Z,8.10
2018-12-09T15:04:15.678Z,8.10
2018-12-09T15:06:53.339Z,8.10
2018-12-09T15:09:27.274Z,8.20
2018-12-09T15:12:07.899Z,8.20
2018-12-09T15:14:41.257Z,8.20
2018-12-09T15:17:14.083Z,8.30
2018-12-09T15:19:47.036Z,8.30
2018-12-09T15:22:20.728Z,8.30
2018-12-09T15:24:53.240Z,8.30
2018-12-09T15:27:25.817Z,8.30
2018-12-09T15:29:58.552Z,8.30
2018-12-09T15:32:32.205Z,8.30
2018-12-09T15:35:05.363Z,8.30
2018-12-09T15:37:37.991Z,8.40
2018-12-09T15:40:08.645Z,8.40
2018-12-09T15:42:44.720Z,8.40
2018-12-09T15:45:21.314Z,8.40
2018-12-09T15:47:57.650Z,8.40
2018-12-09T15:50:30.528Z,8.40
2018-12-09T15:53:03.000Z,8.40
2018-12-09T15:55:36.147Z,8.40
2018-12-09T15:58:15.724Z,8.40
2018-12-09T16:00:53.805Z,8.40
2018-12-09T16:03:26.812Z,8.40
2018-12-09T16:06:03.406Z,8.40
2018-12-09T16:08:36.555Z,8.40
2018-12-09T16:11:09.547Z,8.40
2018-12-09T16:13:43.156Z,8.40
2018-12-09T16:16:15.897Z,8.40
2018-12-09T16:18:48.152Z,8.40
2018-12-09T16:21:22.439Z,8.40
2018-12-09T16:23:54.837Z,8.40
2018-12-09T16:26:26.957Z,8.40
2018-12-09T16:28:57.761Z,8.40
2018-12-09T16:31:30.552Z,8.30
2018-12-09T16:34:03.020Z,8.30
2018-12-09T16:36:36.155Z,8.30
2018-12-09T16:39:09.325Z,8.30
2018-12-09T16:41:41.546Z,8.30
2018-12-09T16:44:14.508Z,8.30
2018-12-09T16:46:46.961Z,8.20
2018-12-09T16:49:20.483Z,8.20
2018-12-09T16:51:53.316Z,8.10
2018-12-09T16:54:25.440Z,8.10
2018-12-09T16:57:02.052Z,8.00
2018-12-09T16:59:34.992Z,7.90
2018-12-09T17:02:07.637Z,7.90
2018-12-09T17:04:40.147Z,7.80
2018-12-09T17:07:13.307Z,7.80
2018-12-09T17:09:45.559Z,7.80
2018-12-09T17:12:17.820Z,7.80
2018-12-09T17:14:50.182Z,7.80
2018-12-09T17:17:22.300Z,7.80
2018-12-09T17:19:55.181Z,7.80
2018-12-09T17:22:27.372Z,7.80
2018-12-09T17:24:59.920Z,7.80
2018-12-09T17:27:32.904Z,7.80
2018-12-09T17:30:06.404Z,7.80
2018-12-09T17:32:39.090Z,7.80
2018-12-09T17:35:11.321Z,7.80
2018-12-09T17:37:43.714Z,7.80
2018-12-09T17:40:13.960Z,7.80
2018-12-09T17:42:46.940Z,7.80
2018-12-09T17:45:19.531Z,7.90
2018-12-09T17:47:51.832Z,7.90
2018-12-09T17:50:24.878Z,7.90
2018-12-09T17:52:57.276Z,7.90
2018-12-09T17:55:33.555Z,7.90
2018-12-09T17:58:05.742Z,8.00
2018-12-09T18:00:42.820Z,8.00
2018-12-09T18:03:15.650Z,8.00
2018-12-09T18:05:51.801Z,8.00
2018-12-09T18:08:24.299Z,8.00
2018-12-09T18:10:57.480Z,8.00
2018-12-09T18:13:29.869Z,8.10
2018-12-09T18:16:03.781Z,8.00
2018-12-09T18:18:40.112Z,8.00
2018-12-09T18:21:13.533Z,8.00
2018-12-09T18:23:46.578Z,8.00
2018-12-09T18:26:19.068Z,8.00
2018-12-09T18:28:51.296Z,8.00
2018-12-09T18:31:27.840Z,8.00
2018-12-09T18:34:04.310Z,8.10
2018-12-09T18:36:37.021Z,8.10
2018-12-09T18:39:09.175Z,8.10
2018-12-09T18:41:41.621Z,8.10
2018-12-09T18:44:13.744Z,8.10
2018-12-09T18:46:50.137Z,8.10
2018-12-09T18:49:22.846Z,8.10
2018-12-09T18:51:55.335Z,8.20
2018-12-09T18:54:27.648Z,8.20
2018-12-09T18:57:00.739Z,8.20
2018-12-09T18:59:35.009Z,8.20
2018-12-09T19:02:07.613Z,8.20
2018-12-09T19:04:43.835Z,8.20
2018-12-09T19:07:20.999Z,8.20
2018-12-09T19:09:54.036Z,8.20
2018-12-09T19:12:31.193Z,8.20
2018-12-09T19:15:07.425Z,8.20
2018-12-09T19:17:40.983Z,8.20
2018-12-09T19:20:13.596Z,8.20
2018-12-09T19:22:45.917Z,8.20
2018-12-09T19:25:22.241Z,8.20
2018-12-09T19:27:54.558Z,8.20
2018-12-09T19:30:27.624Z,8.20
2018-12-09T19:33:00.111Z,8.20
2018-12-09T19:35:33.180Z,8.20
2018-12-09T19:38:06.268Z,8.20
2018-12-09T19:40:38.427Z,8.20
2018-12-09T19:43:13.279Z,8.30
2018-12-09T19:45:45.893Z,8.30
2018-12-09T19:48:18.214Z,8.30
2018-12-09T19:50:49.257Z,8.30
2018-12-09T19:53:25.953Z,8.30
2018-12-09T19:55:58.852Z,8.30
2018-12-09T19:58:31.116Z,8.20
2018-12-09T20:01:03.329Z,8.20
2018-12-09T20:03:35.940Z,8.20
2018-12-09T20:06:08.833Z,8.20
2018-12-09T20:08:41.409Z,8.20
2018-12-09T20:11:13.880Z,8.20
2018-12-09T20:13:47.096Z,8.20
2018-12-09T20:16:19.650Z,8.20
2018-12-09T20:18:52.147Z,8.20
2018-12-09T20:21:25.263Z,8.20
2018-12-09T20:23:58.338Z,8.20
2018-12-09T20:26:31.461Z,8.20
2018-12-09T20:29:03.896Z,8.10
2018-12-09T20:31:36.224Z,8.10
2018-12-09T20:34:09.318Z,8.10
2018-12-09T20:36:45.833Z,8.10
2018-12-09T20:39:22.152Z,8.10
2018-12-09T20:41:54.333Z,8.20
2018-12-09T20:44:27.408Z,8.20
2018-12-09T20:46:57.796Z,8.10
2018-12-09T20:49:29.996Z,8.20
2018-12-09T20:52:02.206Z,8.20
2018-12-09T20:54:34.310Z,8.20
2018-12-09T20:57:07.433Z,8.20
2018-12-09T20:59:40.484Z,8.20
2018-12-09T21:02:13.332Z,8.20
2018-12-09T21:04:46.515Z,8.20
2018-12-09T21:09:50.177Z,8.20
2018-12-09T21:17:27.654Z,8.30
2018-12-09T21:20:00.412Z,8.20
2018-12-09T21:22:33.233Z,8.30
2018-12-09T21:25:06.950Z,8.20
2018-12-09T21:27:39.590Z,8.20
2018-12-09T21:30:12.468Z,8.20
2018-12-09T21:32:42.687Z,8.20
2018-12-09T21:35:15.661Z,8.20
2018-12-09T21:37:48.598Z,8.20
2018-12-09T21:40:21.447Z,8.20
2018-12-09T21:42:53.927Z,8.20
2018-12-09T21:45:26.496Z,8.20
2018-12-09T21:47:59.888Z,8.20
2018-12-09T21:50:32.975Z,8.10
2018-12-09T21:53:07.565Z,8.10
2018-12-09T21:55:44.115Z,8.10
2018-12-09T21:58:18.481Z,8.10
2018-12-09T22:00:51.148Z,8.10
2018-12-09T22:03:24.994Z,8.10
2018-12-09T22:05:58.814Z,8.10
2018-12-09T22:08:31.338Z,8.10
2018-12-09T22:11:05.261Z,8.10
2018-12-09T22:13:37.416Z,8.10
2018-12-09T22:16:09.535Z,8.10
2018-12-09T22:18:41.881Z,8.10
2018-12-09T22:21:16.411Z,8.00
2018-12-09T22:26:23.039Z,8.10
2018-12-09T22:31:43.738Z,8.10
2018-12-09T22:34:18.031Z,8.10
2018-12-09T22:36:54.553Z,8.10
2018-12-09T22:39:33.444Z,8.10
2018-12-09T22:42:10.883Z,8.10
2018-12-09T22:44:49.074Z,8.10
2018-12-09T22:47:25.841Z,8.00
2018-12-09T22:49:58.329Z,8.00
2018-12-09T22:52:31.528Z,8.00
2018-12-09T22:55:04.508Z,8.00
2018-12-09T22:57:36.811Z,8.10
2018-12-09T23:00:18.942Z,8.10
2018-12-09T23:02:56.584Z,8.10
2018-12-09T23:05:32.617Z,8.10
2018-12-09T23:08:09.047Z,8.10
2018-12-09T23:10:42.019Z,8.10
2018-12-09T23:13:18.303Z,8.00
2018-12-09T23:15:50.359Z,8.00
2018-12-09T23:18:20.827Z,7.90
2018-12-09T23:20:57.139Z,7.90
2018-12-09T23:23:29.276Z,7.90
2018-12-09T23:26:01.563Z,7.80
2018-12-09T23:28:34.559Z,7.80
2018-12-09T23:31:07.059Z,7.80
2018-12-09T23:33:39.533Z,7.80
2018-12-09T23:36:16.541Z,7.80
2018-12-09T23:38:49.378Z,7.70
2018-12-09T23:41:21.879Z,7.70
2018-12-09T23:43:53.920Z,7.70
2018-12-09T23:46:26.896Z,7.80
2018-12-09T23:48:58.896Z,7.80
2018-12-09T23:51:31.139Z,7.80
2018-12-09T23:54:03.403Z,7.80
2018-12-09T23:56:35.419Z,7.80
2018-12-09T23:59:07.415Z,7.80
